Time;durP1;ratioP1;P1;durP2;ratioP2;P2;SDS_P1;SDS_P2;PMS_P1;PMS_P2;Temp;Humidity;BMP_temperature;BMP_pressure;BME280_temperature;BME280_humidity;BME280_pressure;Samples;Min_cycle;Max_cycle;Signal;HPM_P1;HPM_P2
2022/06/07 00:02:08;;;;;;;24.30;21.35;;;;;;;14.00;85.63;101235.09;5090793;28;20020;-70
2022/06/07 00:04:35;;;;;;;24.95;22.25;;;;;;;13.92;85.09;101222.28;5091491;28;20032;-70
2022/06/07 00:07:01;;;;;;;30.27;21.52;;;;;;;13.95;85.25;101237.25;5093416;28;20057;-69
2022/06/07 00:09:27;;;;;;;27.17;22.02;;;;;;;13.94;84.81;101227.50;5091201;28;20114;-70
2022/06/07 00:11:52;;;;;;;26.70;21.95;;;;;;;13.98;84.82;101224.50;5060518;28;20020;-70
2022/06/07 00:14:19;;;;;;;27.17;23.98;;;;;;;14.02;84.89;101230.50;5096208;28;20063;-70
2022/06/07 00:16:44;;;;;;;29.25;24.33;;;;;;;13.98;85.06;101234.38;5092764;28;20102;-70
2022/06/07 00:19:10;;;;;;;34.50;25.95;;;;;;;13.94;84.89;101232.84;5075414;28;20543;-70
2022/06/07 00:21:36;;;;;;;34.25;27.27;;;;;;;13.85;84.96;101219.19;5090996;28;20039;-70
2022/06/07 00:24:03;;;;;;;33.17;25.58;;;;;;;13.86;85.30;101220.91;5091114;28;20109;-70
2022/06/07 00:26:30;;;;;;;32.75;26.33;;;;;;;13.84;85.44;101220.13;5090392;28;20038;-69
2022/06/07 00:28:57;;;;;;;33.20;27.45;;;;;;;13.82;85.61;101222.09;5091166;28;20103;-70
2022/06/07 00:31:23;;;;;;;33.85;28.27;;;;;;;13.78;86.44;101217.06;5079800;28;20119;-69
2022/06/07 00:33:48;;;;;;;31.63;27.25;;;;;;;13.80;85.41;101218.66;5077654;28;20539;-69
2022/06/07 00:36:14;;;;;;;33.55;27.13;;;;;;;13.75;85.58;101220.78;5070154;28;20163;-69
2022/06/07 00:38:43;;;;;;;31.52;25.50;;;;;;;13.73;85.46;101203.16;5090465;28;20020;-69
2022/06/07 00:41:09;;;;;;;34.33;26.13;;;;;;;13.74;85.45;101208.41;5073324;28;20540;-69
2022/06/07 00:43:36;;;;;;;27.85;25.05;;;;;;;13.76;85.03;101195.75;5071807;28;20405;-68
2022/06/07 00:46:06;;;;;;;29.05;25.05;;;;;;;13.72;85.74;101193.44;5091701;28;20028;-69
2022/06/07 00:48:31;;;;;;;28.08;24.20;;;;;;;13.75;85.52;101191.38;5103681;28;20098;-69
2022/06/07 00:51:11;;;;;;;26.98;24.10;;;;;;;13.80;85.78;101189.25;5081670;28;20114;-69
2022/06/07 00:53:44;;;;;;;27.60;23.17;;;;;;;13.77;84.85;101188.63;5075142;28;20024;-69
2022/06/07 00:56:10;;;;;;;25.67;22.50;;;;;;;13.71;84.42;101197.94;5090224;28;20058;-69
2022/06/07 00:58:36;;;;;;;26.10;21.92;;;;;;;13.66;84.57;101194.72;5071778;28;20028;-69
2022/06/07 01:01:02;;;;;;;24.75;21.75;;;;;;;13.59;84.76;101188.94;5090399;28;20495;-69
2022/06/07 01:03:27;;;;;;;26.88;21.58;;;;;;;13.61;84.72;101184.34;5090283;28;20487;-69
2022/06/07 01:05:54;;;;;;;28.55;21.83;;;;;;;13.67;84.76;101187.53;5077465;28;20062;-69
2022/06/07 01:11:05;;;;;;;23.10;20.00;;;;;;;13.68;83.87;101179.44;5090678;28;20026;-69
2022/06/07 01:13:32;;;;;;;23.58;19.88;;;;;;;13.62;83.64;101182.53;5089714;28;20118;-69
2022/06/07 01:16:01;;;;;;;21.65;18.15;;;;;;;13.62;84.08;101186.06;5095540;28;20070;-69
2022/06/07 01:18:28;;;;;;;21.52;17.45;;;;;;;13.64;83.49;101176.09;5090068;28;20467;-69
2022/06/07 01:21:31;;;;;;;20.60;17.20;;;;;;;13.71;83.33;101179.22;5072378;28;20039;-69
2022/06/07 01:23:57;;;;;;;22.27;17.20;;;;;;;13.61;82.86;101178.13;5009900;28;20045;-69
2022/06/07 01:26:22;;;;;;;18.45;16.48;;;;;;;13.66;83.19;101173.31;5071899;28;20047;-70
2022/06/07 01:28:48;;;;;;;19.48;16.80;;;;;;;13.57;82.97;101173.97;5094647;28;20081;-69
2022/06/07 01:31:14;;;;;;;19.00;15.73;;;;;;;13.60;82.60;101168.41;5071950;28;20395;-69
2022/06/07 01:33:39;;;;;;;21.02;16.35;;;;;;;13.53;82.64;101168.00;5055130;28;20418;-69
2022/06/07 01:36:08;;;;;;;17.52;15.73;;;;;;;13.54;82.67;101167.03;5090071;28;20036;-69
2022/06/07 01:38:38;;;;;;;19.40;17.37;;;;;;;13.51;82.84;101166.41;5076896;28;20031;-69
2022/06/07 01:43:49;;;;;;;18.67;16.10;;;;;;;13.57;82.16;101166.81;5095088;28;20486;-70
2022/06/07 01:46:15;;;;;;;19.25;15.57;;;;;;;13.50;82.69;101170.00;5094962;28;20028;-69
2022/06/07 01:48:40;;;;;;;20.48;15.70;;;;;;;13.48;82.76;101163.94;5089905;28;20024;-70
2022/06/07 01:51:08;;;;;;;18.13;15.13;;;;;;;13.37;83.39;101162.00;5092318;28;20035;-69
2022/06/07 01:53:34;;;;;;;17.00;14.73;;;;;;;13.38;82.76;101159.25;5081850;28;20106;-69
2022/06/07 01:56:18;;;;;;;16.73;14.43;;;;;;;13.52;82.97;101158.25;5094522;28;20028;-69
2022/06/07 01:58:44;;;;;;;15.45;13.60;;;;;;;13.38;81.98;101145.88;5074463;28;20024;-70
2022/06/07 02:01:11;;;;;;;15.70;13.20;;;;;;;13.42;81.53;101151.88;5080998;28;20539;-70
2022/06/07 02:03:36;;;;;;;15.90;12.63;;;;;;;13.43;80.97;101153.56;5113857;28;20402;-70
2022/06/07 02:06:09;;;;;;;16.83;11.60;;;;;;;13.41;81.26;101147.47;5095209;28;20035;-70
2022/06/07 02:08:36;;;;;;;14.57;10.63;;;;;;;13.37;80.58;101148.66;5093876;28;20028;-70
2022/06/07 02:11:10;;;;;;;15.90;10.27;;;;;;;13.29;80.40;101148.31;5093832;28;20030;-69
2022/06/07 02:13:37;;;;;;;12.68;10.07;;;;;;;13.29;79.87;101146.50;5093399;28;20058;-69
2022/06/07 02:16:03;;;;;;;12.23;9.90;;;;;;;13.21;79.54;101139.94;5094023;28;20395;-70
2022/06/07 02:18:31;;;;;;;12.38;9.35;;;;;;;13.25;79.83;101144.13;5096523;28;20028;-69
2022/06/07 02:20:59;;;;;;;10.55;9.35;;;;;;;13.18;79.72;101139.22;5114224;28;20016;-69
2022/06/07 02:23:29;;;;;;;11.35;9.13;;;;;;;13.26;79.70;101149.41;5094678;28;20020;-69
2022/06/07 02:25:59;;;;;;;12.77;9.18;;;;;;;13.23;79.41;101149.56;5075470;28;20046;-70
2022/06/07 02:28:28;;;;;;;11.68;8.68;;;;;;;13.21;78.93;101148.84;5093207;28;20077;-69
2022/06/07 02:30:57;;;;;;;14.88;8.60;;;;;;;13.15;79.34;101136.78;5093777;28;20382;-70
2022/06/07 02:33:23;;;;;;;;;;;;;;;13.35;78.84;101139.88;5093277;28;20065;-70
2022/06/07 02:35:50;;;;;;;12.10;8.15;;;;;;;13.22;79.35;101136.34;5093186;28;20141;-69
2022/06/07 02:38:16;;;;;;;9.50;7.63;;;;;;;13.16;78.95;101135.81;5090858;28;20031;-70
2022/06/07 02:40:43;;;;;;;10.88;7.03;;;;;;;13.12;78.14;101128.13;5097816;28;20016;-70
2022/06/07 02:43:09;;;;;;;9.73;7.63;;;;;;;13.16;78.47;101137.63;5092164;28;20479;-70
2022/06/07 02:45:36;;;;;;;10.50;7.35;;;;;;;13.15;78.21;101138.59;5092769;28;20062;-70
2022/06/07 02:48:03;;;;;;;13.70;6.93;;;;;;;13.06;79.31;101121.38;5092432;28;20023;-69
2022/06/07 02:50:31;;;;;;;10.38;6.65;;;;;;;13.10;78.29;101130.03;5074793;28;20032;-69
2022/06/07 02:52:56;;;;;;;13.95;6.00;;;;;;;13.16;78.25;101130.47;5075553;28;20078;-70
2022/06/07 02:55:21;;;;;;;11.38;6.40;;;;;;;13.14;77.88;101121.69;5074418;28;20031;-69
2022/06/07 02:57:47;;;;;;;10.65;6.18;;;;;;;13.11;77.75;101113.88;5083861;28;20036;-70
2022/06/07 03:00:15;;;;;;;8.93;5.82;;;;;;;13.14;77.68;101123.50;5074172;28;20070;-69
2022/06/07 03:02:43;;;;;;;10.25;6.20;;;;;;;13.13;78.08;101120.00;5091835;28;20433;-70
2022/06/07 03:05:10;;;;;;;8.15;5.45;;;;;;;13.14;77.27;101118.16;5081373;28;20020;-69
2022/06/07 03:07:37;;;;;;;8.38;5.72;;;;;;;13.12;77.67;101128.97;5074008;28;20071;-70
2022/06/07 03:10:06;;;;;;;12.35;5.80;;;;;;;13.14;77.38;101129.69;5094036;28;20475;-69
2022/06/07 03:12:32;;;;;;;;;;;;;;;13.20;77.83;101133.75;5096466;28;20028;-70
2022/06/07 03:14:58;;;;;;;9.77;6.72;;;;;;;13.08;77.98;101139.97;5095776;28;19923;-70
2022/06/07 03:17:24;;;;;;;9.60;5.88;;;;;;;13.10;77.70;101141.56;5094061;28;20039;-70
2022/06/07 03:19:52;;;;;;;7.85;5.70;;;;;;;13.08;77.46;101134.63;5062104;28;20058;-70
2022/06/07 03:22:19;;;;;;;10.90;5.43;;;;;;;13.09;77.19;101150.56;5092479;28;20024;-70
2022/06/07 03:24:45;;;;;;;10.60;5.75;;;;;;;13.09;77.26;101150.56;5092128;28;20042;-69
2022/06/07 03:27:12;;;;;;;9.23;5.65;;;;;;;12.98;77.57;101139.75;5078371;28;20020;-70
2022/06/07 03:29:38;;;;;;;9.30;5.60;;;;;;;13.07;77.83;101148.94;5091773;28;20035;-70
2022/06/07 03:32:04;;;;;;;8.30;5.72;;;;;;;13.07;77.10;101151.63;5091630;28;20035;-70
2022/06/07 03:34:33;;;;;;;10.38;5.30;;;;;;;13.03;77.07;101158.97;5089858;28;20020;-70
2022/06/07 03:36:59;;;;;;;7.22;5.32;;;;;;;13.02;77.11;101148.41;5096710;28;20086;-70
2022/06/07 03:39:24;;;;;;;9.60;5.43;;;;;;;13.00;77.25;101150.31;5078462;28;20066;-70
2022/06/07 03:41:50;;;;;;;9.75;5.57;;;;;;;13.01;77.10;101152.03;5091193;28;20035;-69
2022/06/07 03:44:16;;;;;;;6.93;5.63;;;;;;;13.00;77.08;101151.19;5071171;28;20028;-69
2022/06/07 03:46:44;;;;;;;9.00;5.75;;;;;;;12.96;77.15;101161.19;5091308;28;20035;-70
2022/06/07 03:49:10;;;;;;;7.45;5.03;;;;;;;13.01;77.71;101163.56;5091008;28;20027;-69
2022/06/07 03:51:36;;;;;;;8.73;5.32;;;;;;;13.01;76.96;101162.72;5092686;28;20028;-69
2022/06/07 03:54:02;;;;;;;6.45;5.20;;;;;;;13.06;77.38;101158.78;5073425;28;20034;-70
2022/06/07 03:56:28;;;;;;;8.65;5.47;;;;;;;13.05;76.86;101153.53;5096004;28;20031;-69
2022/06/07 03:58:54;;;;;;;10.07;5.60;;;;;;;13.07;76.94;101162.28;5070425;28;20487;-69
2022/06/07 04:01:22;;;;;;;8.35;5.70;;;;;;;12.97;77.37;101164.75;5091191;28;20035;-70
2022/06/07 04:03:50;;;;;;;7.60;4.78;;;;;;;13.00;77.42;101166.31;5093371;28;20506;-69
2022/06/07 04:06:25;;;;;;;9.03;5.43;;;;;;;13.01;77.47;101165.38;5090778;28;20032;-70
2022/06/07 04:08:55;;;;;;;6.97;5.88;;;;;;;12.98;77.13;101157.59;5089830;28;20422;-69
2022/06/07 04:11:23;;;;;;;7.72;5.78;;;;;;;12.98;77.21;101169.13;5090553;28;20031;-70
2022/06/07 04:13:50;;;;;;;13.27;6.60;;;;;;;12.98;77.88;101178.94;5090207;28;20020;-70
2022/06/07 04:16:18;;;;;;;9.25;5.90;;;;;;;13.01;78.02;101176.91;5090753;28;20047;-70
2022/06/07 04:18:44;;;;;;;11.73;6.60;;;;;;;13.06;77.14;101174.78;5069759;28;20035;-69
2022/06/07 04:21:10;;;;;;;9.43;5.90;;;;;;;13.04;77.99;101168.69;5078518;28;20051;-70
2022/06/07 04:23:36;;;;;;;7.38;5.32;;;;;;;13.11;76.93;101172.63;5090709;28;20135;-69
2022/06/07 04:26:11;;;;;;;9.23;6.35;;;;;;;13.03;77.34;101171.44;5077578;28;20519;-70
2022/06/07 04:28:37;;;;;;;9.50;5.82;;;;;;;13.02;77.75;101178.63;5097621;28;20498;-70
2022/06/07 04:31:03;;;;;;;12.93;7.03;;;;;;;13.06;77.68;101172.13;5088945;28;20102;-70
2022/06/07 04:33:28;;;;;;;7.65;6.63;;;;;;;13.03;77.67;101169.66;5055655;28;20032;-69
2022/06/07 04:35:54;;;;;;;10.43;6.03;;;;;;;13.03;78.37;101171.44;5095514;28;20030;-70
2022/06/07 04:38:20;;;;;;;10.60;6.30;;;;;;;13.05;77.80;101170.41;5038600;28;20402;-70
2022/06/07 04:40:45;;;;;;;9.25;5.97;;;;;;;13.09;77.47;101169.25;5089888;28;20077;-70
2022/06/07 04:43:12;;;;;;;9.10;6.05;;;;;;;13.18;77.71;101178.44;5071282;28;20433;-70
2022/06/07 04:45:39;;;;;;;7.13;6.40;;;;;;;13.13;77.78;101172.56;5090075;28;20028;-69
2022/06/07 04:48:07;;;;;;;11.43;7.28;;;;;;;13.16;77.28;101175.00;5090646;28;20103;-69
2022/06/07 04:50:32;;;;;;;9.82;6.70;;;;;;;13.14;77.44;101185.78;5096182;28;20019;-70
2022/06/07 04:52:58;;;;;;;11.07;6.85;;;;;;;13.17;77.35;101180.22;5092235;28;20069;-70
2022/06/07 04:55:25;;;;;;;11.68;7.22;;;;;;;13.11;77.59;101169.13;5092931;28;20043;-70
2022/06/07 04:57:53;;;;;;;9.55;6.80;;;;;;;13.10;78.05;101178.94;5088196;28;20028;-70
2022/06/07 05:00:19;;;;;;;12.45;7.60;;;;;;;13.15;77.84;101184.00;5072272;28;20899;-69
2022/06/07 05:02:46;;;;;;;8.73;6.78;;;;;;;13.20;78.41;101184.50;5060004;28;20098;-70
2022/06/07 05:05:13;;;;;;;9.88;7.57;;;;;;;13.00;77.87;101140.50;5090065;28;20471;-70
2022/06/07 05:07:39;;;;;;;11.48;7.53;;;;;;;13.22;77.44;101190.63;5089201;28;20032;-69
2022/06/07 05:10:10;;;;;;;12.00;7.55;;;;;;;13.22;77.23;101182.59;5090122;28;20034;-70
2022/06/07 05:12:39;;;;;;;14.23;8.05;;;;;;;13.21;78.40;101185.34;5091984;28;20029;-70
2022/06/07 05:15:06;;;;;;;10.82;7.53;;;;;;;13.26;77.68;101188.63;5090046;28;20482;-70
2022/06/07 05:17:31;;;;;;;12.73;7.95;;;;;;;13.26;77.31;101189.47;5087739;28;20027;-70
2022/06/07 05:19:57;;;;;;;12.05;7.28;;;;;;;13.25;78.11;101181.53;5095033;28;20471;-70
2022/06/07 05:22:24;;;;;;;11.40;7.30;;;;;;;13.32;76.74;101193.53;5071586;28;20410;-69
2022/06/07 05:24:50;;;;;;;11.70;7.88;;;;;;;13.27;76.76;101199.22;5082853;28;20023;-69
2022/06/07 05:27:20;;;;;;;10.07;7.70;;;;;;;13.24;77.42;101193.19;5093133;28;20024;-70
2022/06/07 05:29:47;;;;;;;12.23;8.45;;;;;;;13.27;77.33;101201.88;5098489;28;20409;-70
2022/06/07 05:32:13;;;;;;;8.95;7.72;;;;;;;13.27;78.16;101198.34;5075667;28;20077;-70
2022/06/07 05:34:41;;;;;;;10.82;7.95;;;;;;;13.32;78.04;101206.88;5093667;28;20433;-69
2022/06/07 05:37:15;;;;;;;14.90;8.00;;;;;;;13.40;78.10;101199.19;5093869;28;20364;-69
2022/06/07 05:39:41;;;;;;;10.88;7.85;;;;;;;13.45;77.18;101197.06;5089990;28;20030;-70
2022/06/07 05:42:11;;;;;;;12.30;8.52;;;;;;;13.37;77.21;101197.59;5077811;28;20429;-69
2022/06/07 05:44:37;;;;;;;11.65;8.90;;;;;;;13.36;77.45;101201.25;5093861;28;20039;-69
2022/06/07 05:47:03;;;;;;;12.48;8.10;;;;;;;13.43;78.09;101198.13;5095328;28;20020;-69
2022/06/07 05:49:33;;;;;;;12.30;8.07;;;;;;;13.44;77.80;101184.66;5093652;28;20778;-69
2022/06/07 05:52:01;;;;;;;12.57;8.85;;;;;;;13.47;77.75;101189.81;5093889;28;20087;-70
2022/06/07 05:54:32;;;;;;;10.38;8.77;;;;;;;13.57;77.68;101198.03;5093700;28;20032;-69
2022/06/07 05:56:57;;;;;;;15.75;8.95;;;;;;;13.59;77.68;101198.78;5075255;28;20111;-69
2022/06/07 05:59:23;;;;;;;15.07;9.32;;;;;;;13.61;77.90;101199.53;5092581;28;20119;-70
2022/06/07 06:01:48;;;;;;;15.07;9.68;;;;;;;13.64;78.01;101204.66;5055741;28;20028;-69
2022/06/07 06:04:14;;;;;;;14.38;9.40;;;;;;;13.64;77.78;101193.97;5094599;28;20046;-70
2022/06/07 06:06:40;;;;;;;14.77;10.70;;;;;;;13.67;78.37;101203.59;5076196;28;20040;-69
2022/06/07 06:11:54;;;;;;;14.38;10.43;;;;;;;13.74;77.55;101192.38;5090238;28;20502;-70
2022/06/07 06:14:20;;;;;;;13.48;10.27;;;;;;;13.81;77.84;101204.31;5093094;28;20187;-69
2022/06/07 06:16:46;;;;;;;17.42;10.60;;;;;;;13.80;77.65;101188.41;5092815;28;20024;-69
2022/06/07 06:19:12;;;;;;;13.98;10.63;;;;;;;13.95;77.63;101189.97;5093523;28;20484;-69
2022/06/07 06:21:40;;;;;;;15.18;9.38;;;;;;;14.15;77.87;101207.25;5091079;28;20036;-69
2022/06/07 06:24:08;;;;;;;15.03;10.27;;;;;;;14.28;76.92;101205.38;5073487;28;20016;-70
2022/06/07 06:26:36;;;;;;;14.48;9.60;;;;;;;14.34;76.25;101204.09;5091915;28;20028;-70
2022/06/07 06:29:02;;;;;;;13.30;10.57;;;;;;;14.51;77.15;101195.72;5093475;28;20052;-70
2022/06/07 06:31:28;;;;;;;14.63;10.07;;;;;;;14.59;76.67;101194.28;5058502;28;20081;-70
2022/06/07 06:33:56;;;;;;;13.07;9.85;;;;;;;14.69;76.18;101195.31;5075654;28;20123;-69
2022/06/07 06:36:26;;;;;;;11.93;10.15;;;;;;;14.71;76.71;101196.06;5092471;28;20498;-69
2022/06/07 06:38:52;;;;;;;16.92;11.02;;;;;;;14.72;76.13;101187.03;5093391;28;20493;-69
2022/06/07 06:41:28;;;;;;;16.02;10.60;;;;;;;14.77;76.25;101206.31;5092623;28;20050;-70
2022/06/07 06:43:55;;;;;;;15.70;10.85;;;;;;;14.74;76.38;101199.34;5088839;28;20056;-69
2022/06/07 06:46:41;;;;;;;12.90;10.57;;;;;;;14.77;76.31;101190.25;5092196;28;20016;-69
2022/06/07 06:49:08;;;;;;;13.20;9.60;;;;;;;14.74;76.93;101199.34;5092476;28;20042;-69
2022/06/07 06:51:34;;;;;;;13.18;9.00;;;;;;;14.77;76.99;101195.59;5092668;28;20028;-70
2022/06/07 06:54:02;;;;;;;17.58;9.32;;;;;;;14.81;77.09;101191.69;5075023;28;20031;-69
2022/06/07 06:56:29;;;;;;;17.48;12.23;;;;;;;14.95;76.42;101204.91;5093474;28;20035;-69
2022/06/07 06:58:55;;;;;;;20.42;11.27;;;;;;;15.04;76.27;101210.53;5102457;28;20479;-69
2022/06/07 07:01:29;;;;;;;16.52;11.25;;;;;;;15.14;75.34;101206.19;5094526;28;20107;-70
2022/06/07 07:03:55;;;;;;;14.13;10.82;;;;;;;15.33;75.89;101211.84;5071388;28;20043;-69
2022/06/07 07:06:24;;;;;;;14.57;11.25;;;;;;;15.56;75.34;101223.47;5066099;28;20467;-69
2022/06/07 07:08:50;;;;;;;17.52;11.43;;;;;;;15.59;74.40;101214.34;5073262;28;20032;-69
2022/06/07 07:11:24;;;;;;;15.90;12.85;;;;;;;15.69;75.47;101226.06;5073593;28;20020;-70
2022/06/07 07:13:53;;;;;;;18.27;12.13;;;;;;;15.64;73.51;101206.75;5074630;28;20077;-70
2022/06/07 07:16:21;;;;;;;;;;;;;;;15.81;74.13;101221.56;5092457;28;20418;-70
2022/06/07 07:18:47;;;;;;;17.52;11.48;;;;;;;15.74;74.41;101212.31;5091750;28;20347;-69
2022/06/07 07:21:24;;;;;;;20.95;15.38;;;;;;;15.73;74.63;101213.25;5073413;28;20077;-69
2022/06/07 07:23:52;;;;;;;16.88;13.07;;;;;;;15.72;74.92;101211.56;5102894;28;20070;-70
2022/06/07 07:26:24;;;;;;;16.75;13.05;;;;;;;15.81;74.72;101219.72;5091842;28;20104;-70
2022/06/07 07:28:52;;;;;;;19.73;13.55;;;;;;;15.88;74.40;101206.66;5091262;28;20107;-70
2022/06/07 07:31:21;;;;;;;15.90;14.02;;;;;;;16.02;74.09;101208.25;5073003;28;20143;-70
2022/06/07 07:33:47;;;;;;;;;;;;;;;16.30;74.55;101205.06;5091999;28;20031;-70
2022/06/07 07:36:13;;;;;;;20.23;13.98;;;;;;;16.60;72.17;101202.66;5073331;28;20299;-70
2022/06/07 07:38:39;;;;;;;20.35;13.68;;;;;;;16.78;72.50;101203.84;5089176;28;20032;-70
2022/06/07 07:41:15;;;;;;;19.75;13.10;;;;;;;17.07;72.17;101208.63;5088676;28;20028;-69
2022/06/07 07:43:41;;;;;;;16.20;12.85;;;;;;;17.18;70.52;101209.41;5090552;28;20513;-69
2022/06/07 07:46:06;;;;;;;19.10;12.95;;;;;;;17.11;71.04;101202.81;5057756;28;20052;-69
2022/06/07 07:48:32;;;;;;;19.33;14.15;;;;;;;17.05;70.58;101208.72;5089905;28;20467;-69
2022/06/07 07:51:03;;;;;;;21.73;14.13;;;;;;;16.96;71.46;101196.91;5056713;28;20032;-70
2022/06/07 07:53:29;;;;;;;18.33;12.82;;;;;;;16.95;69.58;101214.03;5072481;28;20039;-69
2022/06/07 07:55:57;;;;;;;19.63;14.43;;;;;;;16.78;70.40;101202.00;5074133;28;20383;-69
2022/06/07 07:58:23;;;;;;;19.05;13.90;;;;;;;16.77;70.70;101200.31;5072313;28;20028;-69
2022/06/07 08:00:49;;;;;;;15.25;12.43;;;;;;;16.75;71.88;101191.50;5072619;28;20031;-70
2022/06/07 08:03:15;;;;;;;20.25;12.55;;;;;;;17.12;71.87;101203.69;5068655;28;20046;-69
2022/06/07 08:05:41;;;;;;;18.02;12.43;;;;;;;17.30;71.28;101203.97;5070903;28;20472;-69
2022/06/07 08:08:08;;;;;;;17.38;12.13;;;;;;;17.41;69.79;101204.75;5052829;28;20429;-70
2022/06/07 08:10:34;;;;;;;19.17;13.63;;;;;;;17.53;68.98;101197.47;5076741;28;20111;-69
2022/06/07 08:13:00;;;;;;;18.80;11.55;;;;;;;17.72;69.02;101202.06;5060203;28;20112;-73
2022/06/07 08:15:29;;;;;;;142.43;21.02;;;;;;;17.90;67.76;101203.16;5070362;28;20025;-75
2022/06/07 08:17:55;;;;;;;17.90;12.73;;;;;;;18.05;67.02;101197.41;5068990;28;20031;-71
2022/06/07 08:20:22;;;;;;;15.77;10.30;;;;;;;18.26;67.85;101206.25;5070025;28;20029;-70
2022/06/07 08:22:49;;;;;;;13.80;11.45;;;;;;;18.26;67.12;101205.41;5068920;28;20344;-71
2022/06/07 08:25:16;;;;;;;15.60;12.10;;;;;;;18.25;66.23;101201.88;5070807;28;22023;-71
2022/06/07 08:27:42;;;;;;;13.75;10.32;;;;;;;18.36;66.68;101204.44;5068342;28;20033;-70
2022/06/07 08:30:08;;;;;;;15.38;9.90;;;;;;;18.63;65.22;101207.47;5068843;28;20025;-70
2022/06/07 08:32:34;;;;;;;13.98;9.50;;;;;;;18.63;64.29;101199.38;5068751;28;20388;-71
2022/06/07 08:37:44;;;;;;;12.13;9.23;;;;;;;18.46;63.88;101211.69;5070970;28;20079;-70
2022/06/07 08:40:14;;;;;;;11.93;8.52;;;;;;;18.47;62.68;101208.00;5070483;28;20039;-70
2022/06/07 08:42:48;;;;;;;;;;;;;;;18.50;64.09;101199.63;5071077;28;20415;-71
2022/06/07 08:45:21;;;;;;;12.02;8.23;;;;;;;18.17;64.59;101207.06;5069026;28;19922;-70
2022/06/07 08:47:58;;;;;;;11.18;7.88;;;;;;;18.10;64.70;101201.41;5068828;28;20025;-69
2022/06/07 08:50:24;;;;;;;10.98;8.25;;;;;;;17.91;65.66;101194.13;5073638;28;20031;-70
2022/06/07 08:52:57;;;;;;;12.50;11.02;;;;;;;17.94;63.94;101201.03;5072838;28;20541;-70
2022/06/07 08:55:32;;;;;;;11.23;9.82;;;;;;;18.16;64.40;101197.31;5069418;28;20515;-69
2022/06/07 08:58:01;;;;;;;9.52;8.50;;;;;;;18.45;64.01;101197.38;5067904;28;20036;-70
2022/06/07 09:00:29;;;;;;;14.20;11.00;;;;;;;18.59;63.44;101191.59;5069272;28;20218;-70
2022/06/07 09:03:39;;;;;;;15.07;11.35;;;;;;;18.94;63.26;101201.00;5076810;28;20105;-69
2022/06/07 09:06:14;;;;;;;15.27;10.05;;;;;;;19.21;61.85;101202.94;5085834;28;20444;-71
2022/06/07 09:08:45;;;;;;;15.00;11.32;;;;;;;19.32;61.24;101191.13;5089829;28;20073;-70
2022/06/07 09:14:19;;;;;;;13.18;9.10;;;;;;;19.88;60.94;101189.41;5090358;28;20039;-69
2022/06/07 09:16:45;;;;;;;9.88;7.18;;;;;;;19.88;57.38;101186.72;5089946;28;20039;-71
2022/06/07 09:19:24;;;;;;;13.23;6.47;;;;;;;20.00;59.11;101192.78;5071844;28;20028;-71
2022/06/07 09:21:49;;;;;;;7.38;6.28;;;;;;;19.71;57.00;101197.31;5089629;28;20411;-70
2022/06/07 09:24:39;;;;;;;230.02;22.67;;;;;;;19.55;58.66;101194.34;5068858;28;21916;-69
2022/06/07 09:27:19;;;;;;;8.52;5.32;;;;;;;19.87;57.67;101195.81;5087936;28;20027;-70
2022/06/07 09:30:19;;;;;;;9.95;5.90;;;;;;;19.82;58.81;101198.97;5088046;28;20360;-71
2022/06/07 09:32:45;;;;;;;9.10;6.35;;;;;;;19.78;57.13;101199.41;5056918;28;20036;-71
2022/06/07 09:35:52;;;;;;;7.68;5.85;;;;;;;19.88;58.09;101192.13;5072558;28;20020;-71
2022/06/07 09:38:39;;;;;;;12.70;6.03;;;;;;;19.65;58.16;101192.50;5006349;28;20026;-70
2022/06/07 09:44:05;;;;;;;11.48;7.38;;;;;;;19.55;58.71;101196.19;5072796;28;20081;-71
2022/06/07 09:46:31;;;;;;;9.65;7.80;;;;;;;19.54;58.58;101187.25;5089487;28;20034;-70
2022/06/07 09:48:57;;;;;;;11.85;7.40;;;;;;;19.51;58.98;101187.53;5088253;28;20491;-71
2022/06/07 09:51:28;;;;;;;9.95;6.85;;;;;;;19.49;58.48;101190.38;5088783;28;20089;-70
2022/06/07 09:54:03;;;;;;;8.25;6.10;;;;;;;19.43;59.39;101182.03;5089267;28;20023;-70
2022/06/07 09:56:46;;;;;;;7.68;5.82;;;;;;;19.55;59.08;101177.31;5089111;28;20105;-71
2022/06/07 09:59:29;;;;;;;5.60;5.03;;;;;;;19.83;57.73;101186.34;5084683;28;20038;-72
2022/06/07 10:01:59;;;;;;;8.98;5.03;;;;;;;19.83;56.52;101183.63;5090459;28;20063;-70
2022/06/07 10:04:36;;;;;;;6.22;4.80;;;;;;;19.82;57.58;101182.75;5089309;28;20529;-70
2022/06/07 10:07:16;;;;;;;7.43;5.00;;;;;;;20.01;56.58;101183.69;5102357;28;20078;-70
2022/06/07 10:10:04;;;;;;;5.63;3.83;;;;;;;19.86;56.42;101177.94;5088071;28;20031;-70
2022/06/07 10:12:32;;;;;;;7.65;3.90;;;;;;;19.81;56.83;101188.31;5089759;28;20364;-70
2022/06/07 10:15:10;;;;;;;6.47;3.78;;;;;;;19.83;54.77;101183.63;5094028;28;20451;-70
2022/06/07 10:17:36;;;;;;;5.80;3.55;;;;;;;20.08;53.47;101179.38;5074829;28;20399;-70
2022/06/07 10:20:16;;;;;;;9.90;4.53;;;;;;;20.35;54.45;101176.66;5093237;28;20028;-70
2022/06/07 10:22:43;;;;;;;7.13;3.92;;;;;;;20.50;53.13;101159.91;5092465;28;20066;-70
2022/06/07 10:25:51;;;;;;;4.00;3.60;;;;;;;20.54;53.68;101159.50;5093461;28;20027;-70
2022/06/07 10:28:31;;;;;;;7.38;4.15;;;;;;;20.45;53.94;101163.09;5051457;28;20054;-70
2022/06/07 10:31:00;;;;;;;4.10;3.65;;;;;;;20.54;54.80;101159.50;5089804;28;20020;-70
2022/06/07 10:33:28;;;;;;;8.10;3.95;;;;;;;20.53;54.95;101159.63;5092466;28;20035;-70
2022/06/07 10:36:03;;;;;;;6.40;4.60;;;;;;;20.32;53.62;101165.28;5078108;28;20036;-71
2022/06/07 10:38:49;;;;;;;8.57;4.07;;;;;;;20.13;54.53;101167.13;5091353;28;20788;-70
2022/06/07 10:41:26;;;;;;;7.03;4.13;;;;;;;19.99;55.04;101162.22;5090191;28;20085;-70
2022/06/07 10:44:01;;;;;;;7.63;3.85;;;;;;;19.99;55.77;101167.63;5092728;28;20032;-71
2022/06/07 10:46:28;;;;;;;6.13;3.30;;;;;;;20.07;54.16;101167.72;5093594;28;20413;-71
2022/06/07 10:49:29;;;;;;;4.63;3.33;;;;;;;20.37;54.54;101173.81;5090665;28;20020;-71
2022/06/07 10:52:22;;;;;;;7.57;3.42;;;;;;;20.70;53.66;101163.34;5090634;28;20513;-72
2022/06/07 10:54:53;;;;;;;8.45;3.30;;;;;;;20.99;54.03;101161.22;5092755;28;20027;-71
2022/06/07 10:57:39;;;;;;;6.05;3.50;;;;;;;21.08;52.37;101162.97;5092507;28;20047;-71
2022/06/07 11:00:42;;;;;;;4.45;2.92;;;;;;;21.01;51.43;101151.09;5092351;28;20075;-71
2022/06/07 11:03:26;;;;;;;4.03;2.35;;;;;;;20.87;52.11;101159.78;5043163;28;20036;-71
2022/06/07 11:11:43;;;;;;;7.47;3.33;;;;;;;21.43;50.88;101152.25;5092564;28;20084;-72
2022/06/07 11:14:18;;;;;;;8.95;2.85;;;;;;;21.61;49.09;101165.72;5089871;28;20100;-72
2022/06/07 11:16:49;;;;;;;4.97;2.05;;;;;;;21.48;48.06;101153.47;5075546;28;20035;-71
2022/06/07 11:19:17;;;;;;;4.65;2.38;;;;;;;21.53;47.63;101153.84;5091709;28;20031;-71
2022/06/07 11:21:50;;;;;;;5.28;2.88;;;;;;;21.37;48.44;101155.59;5072051;28;20506;-71
2022/06/07 11:24:21;;;;;;;7.65;2.38;;;;;;;21.35;49.55;101158.44;5089112;28;20024;-72
2022/06/07 11:26:52;;;;;;;4.97;2.05;;;;;;;21.47;49.89;101148.22;5072997;28;20063;-72
2022/06/07 11:29:22;;;;;;;6.50;2.38;;;;;;;21.47;49.41;101153.63;5091468;28;20630;-71
2022/06/07 11:31:48;;;;;;;4.47;2.17;;;;;;;21.46;49.64;101155.50;5097128;28;20028;-71
2022/06/07 11:34:25;;;;;;;5.47;1.65;;;;;;;21.57;50.60;101148.13;5091704;28;20024;-72
2022/06/07 11:37:07;;;;;;;5.20;1.80;;;;;;;21.62;49.99;101148.47;5091637;28;20047;-71
2022/06/07 11:39:39;;;;;;;4.45;2.00;;;;;;;21.66;50.85;101157.97;5089903;28;20032;-72
2022/06/07 11:42:07;;;;;;;3.45;1.95;;;;;;;21.61;49.07;101154.91;5089038;28;20123;-71
2022/06/07 11:44:36;;;;;;;8.60;2.20;;;;;;;21.56;48.70;101144.56;5073732;28;20030;-71
2022/06/07 11:47:19;;;;;;;6.43;2.47;;;;;;;21.64;49.97;101150.00;5091230;28;20502;-72
2022/06/07 11:49:44;;;;;;;3.88;2.17;;;;;;;21.89;50.67;101161.81;5073596;28;20118;-71
2022/06/07 11:52:12;;;;;;;4.82;2.33;;;;;;;22.02;49.17;101149.66;5106549;28;20138;-72